createdAt,value
2022-10-23T00:01:51.502Z,6.77
2022-10-23T00:04:21.059Z,6.76
2022-10-23T00:06:49.369Z,6.90
2022-10-23T00:09:23.187Z,6.63
2022-10-23T00:11:53.327Z,6.60
2022-10-23T00:14:23.168Z,6.52
2022-10-23T00:16:51.153Z,6.60
2022-10-23T00:19:19.068Z,6.58
2022-10-23T00:21:47.045Z,6.58
2022-10-23T00:24:14.936Z,6.51
2022-10-23T00:26:43.017Z,6.45
2022-10-23T00:29:12.738Z,6.39
2022-10-23T00:31:40.757Z,6.36
2022-10-23T00:34:09.259Z,6.31
2022-10-23T00:36:37.746Z,6.28
2022-10-23T00:39:06.088Z,6.32
2022-10-23T00:41:34.054Z,6.28
2022-10-23T00:44:06.674Z,6.26
2022-10-23T00:46:36.165Z,6.26
2022-10-23T00:49:05.300Z,6.23
2022-10-23T00:51:37.503Z,6.19
2022-10-23T00:54:23.501Z,6.20
2022-10-23T00:56:52.877Z,6.18
2022-10-23T00:59:20.764Z,6.11
2022-10-23T01:01:50.194Z,5.97
2022-10-23T01:04:18.275Z,5.91
2022-10-23T01:06:52.112Z,5.98
2022-10-23T01:09:26.478Z,6.00
2022-10-23T01:11:59.102Z,6.08
2022-10-23T01:14:31.023Z,5.97
2022-10-23T01:17:04.768Z,5.97
2022-10-23T01:19:44.457Z,5.97
2022-10-23T01:22:22.108Z,5.84
2022-10-23T01:24:52.876Z,5.76
2022-10-23T01:27:24.068Z,5.71
2022-10-23T01:30:00.402Z,5.73
2022-10-23T01:32:31.728Z,5.75
2022-10-23T01:35:04.115Z,6.03
2022-10-23T01:37:35.908Z,5.85
2022-10-23T01:40:07.252Z,5.70
2022-10-23T01:42:38.912Z,5.88
2022-10-23T01:45:11.003Z,5.80
2022-10-23T01:47:39.963Z,5.82
2022-10-23T01:50:09.643Z,6.06
2022-10-23T01:52:38.272Z,6.28
2022-10-23T01:55:07.470Z,6.32
2022-10-23T01:57:37.591Z,6.20
2022-10-23T02:00:07.961Z,6.40
2022-10-23T02:02:37.306Z,6.32
2022-10-23T02:05:08.408Z,6.13
2022-10-23T02:07:36.757Z,6.05
2022-10-23T02:10:05.490Z,6.04
2022-10-23T02:12:41.685Z,6.07
2022-10-23T02:15:14.158Z,6.14
2022-10-23T02:17:50.047Z,6.00
2022-10-23T02:20:22.261Z,6.01
2022-10-23T02:22:56.717Z,6.00
2022-10-23T02:25:29.587Z,5.92
2022-10-23T02:28:01.058Z,5.75
2022-10-23T02:30:29.745Z,5.70
2022-10-23T02:32:58.588Z,5.71
2022-10-23T02:35:26.777Z,5.66
2022-10-23T02:37:55.909Z,5.78
2022-10-23T02:40:25.421Z,5.67
2022-10-23T02:42:59.668Z,5.55
2022-10-23T02:45:31.668Z,5.57
2022-10-23T02:48:04.180Z,5.64
2022-10-23T02:50:39.070Z,5.64
2022-10-23T02:53:13.586Z,5.63
2022-10-23T02:55:48.057Z,5.64
2022-10-23T02:58:21.518Z,5.60
2022-10-23T03:00:53.505Z,5.69
2022-10-23T03:03:23.836Z,5.56
2022-10-23T03:05:51.796Z,5.50
2022-10-23T03:08:19.676Z,5.66
2022-10-23T03:13:18.239Z,5.34
2022-10-23T03:15:46.175Z,5.24
2022-10-23T03:18:14.320Z,5.21
2022-10-23T03:20:42.193Z,5.07
2022-10-23T03:23:13.244Z,5.11
2022-10-23T03:25:41.140Z,5.24
2022-10-23T03:28:09.019Z,5.22
2022-10-23T03:30:38.257Z,5.16
2022-10-23T03:33:06.148Z,5.14
2022-10-23T03:35:34.017Z,5.32
2022-10-23T03:38:01.912Z,5.32
2022-10-23T03:40:29.790Z,5.27
2022-10-23T03:42:57.682Z,5.21
2022-10-23T03:45:25.548Z,5.19
2022-10-23T03:47:54.838Z,5.13
2022-10-23T03:50:22.737Z,5.13
2022-10-23T03:52:50.671Z,5.04
2022-10-23T03:55:19.000Z,5.20
2022-10-23T03:57:46.890Z,4.98
2022-10-23T04:00:15.214Z,4.82
2022-10-23T04:02:43.242Z,4.94
2022-10-23T04:05:12.804Z,4.84
2022-10-23T04:07:40.793Z,4.80
2022-10-23T04:10:09.365Z,4.78
2022-10-23T04:12:37.347Z,4.74
2022-10-23T04:15:05.973Z,4.74
2022-10-23T04:17:33.854Z,4.85
2022-10-23T04:20:01.833Z,4.86
2022-10-23T04:22:31.156Z,4.89
2022-10-23T04:24:59.253Z,4.94
2022-10-23T04:27:27.123Z,4.85
2022-10-23T04:29:56.912Z,4.88
2022-10-23T04:32:27.038Z,4.86
2022-10-23T04:34:54.910Z,4.71
2022-10-23T04:37:22.844Z,4.77
2022-10-23T04:39:52.161Z,4.68
2022-10-23T04:42:20.206Z,4.66
2022-10-23T04:44:48.093Z,4.82
2022-10-23T04:47:16.017Z,4.81
2022-10-23T04:49:43.877Z,4.69
2022-10-23T04:52:11.782Z,4.61
2022-10-23T04:54:40.050Z,4.83
2022-10-23T04:57:09.326Z,4.56
2022-10-23T04:59:37.339Z,4.66
2022-10-23T05:02:07.664Z,4.48
2022-10-23T05:04:35.551Z,4.48
2022-10-23T05:07:03.449Z,4.46
2022-10-23T05:09:31.322Z,4.43
2022-10-23T05:11:59.191Z,4.39
2022-10-23T05:14:28.519Z,4.51
2022-10-23T05:17:00.148Z,4.57
2022-10-23T05:19:30.996Z,4.48
2022-10-23T05:21:59.274Z,4.56
2022-10-23T05:24:27.547Z,4.65
2022-10-23T05:26:55.560Z,4.66
2022-10-23T05:29:23.700Z,4.45
2022-10-23T05:31:56.198Z,4.50
2022-10-23T05:34:26.412Z,4.56
2022-10-23T05:36:54.574Z,4.67
2022-10-23T05:39:22.479Z,4.44
2022-10-23T05:41:51.198Z,4.51
2022-10-23T05:44:19.038Z,4.57
2022-10-23T05:46:46.867Z,4.58
2022-10-23T05:49:16.106Z,4.66
2022-10-23T05:51:43.935Z,4.70
2022-10-23T05:54:11.810Z,4.70
2022-10-23T05:56:41.783Z,4.74
2022-10-23T05:59:10.144Z,4.76
2022-10-23T06:01:38.451Z,4.77
2022-10-23T06:04:06.936Z,4.84
2022-10-23T06:06:36.786Z,4.93
2022-10-23T06:09:04.970Z,5.08
2022-10-23T06:11:32.831Z,5.25
2022-10-23T06:14:01.145Z,5.13
2022-10-23T06:16:29.217Z,5.36
2022-10-23T06:18:57.475Z,5.56
2022-10-23T06:21:25.909Z,5.55
2022-10-23T06:23:56.094Z,5.73
2022-10-23T06:26:24.351Z,5.89
2022-10-23T06:28:52.187Z,5.98
2022-10-23T06:31:21.751Z,5.99
2022-10-23T06:33:49.580Z,6.13
2022-10-23T06:36:17.465Z,6.23
2022-10-23T06:38:45.443Z,6.28
2022-10-23T06:41:16.825Z,6.43
2022-10-23T06:43:44.986Z,6.49
2022-10-23T06:46:12.848Z,6.39
2022-10-23T06:48:42.635Z,6.25
2022-10-23T06:51:12.808Z,6.50
2022-10-23T06:53:41.160Z,6.80
2022-10-23T06:56:09.667Z,6.96
2022-10-23T06:58:40.052Z,7.24
2022-10-23T07:01:09.763Z,7.54
2022-10-23T07:03:37.706Z,7.55
2022-10-23T07:06:07.705Z,7.82
2022-10-23T07:08:35.660Z,7.85
2022-10-23T07:11:05.311Z,8.05
2022-10-23T07:13:34.314Z,8.32
2022-10-23T07:16:12.362Z,8.41
2022-10-23T07:18:40.333Z,8.59
2022-10-23T07:21:08.181Z,8.73
2022-10-23T07:23:36.087Z,8.75
2022-10-23T07:26:08.755Z,8.96
2022-10-23T07:28:37.706Z,9.17
2022-10-23T07:31:05.922Z,9.36
2022-10-23T07:33:35.159Z,9.50
2022-10-23T07:36:05.255Z,9.64
2022-10-23T07:38:33.257Z,9.59
2022-10-23T07:41:01.336Z,10.03
2022-10-23T07:43:29.255Z,10.05
2022-10-23T07:45:57.333Z,10.27
2022-10-23T07:48:27.215Z,10.69
2022-10-23T07:51:00.863Z,10.98
2022-10-23T07:53:29.008Z,11.23
2022-10-23T07:55:58.224Z,11.53
2022-10-23T07:58:27.290Z,11.69
2022-10-23T08:00:58.495Z,11.51
2022-10-23T08:03:26.836Z,11.71
2022-10-23T08:05:56.775Z,11.84
2022-10-23T08:08:25.760Z,12.05
2022-10-23T08:10:55.583Z,12.29
2022-10-23T08:13:23.532Z,12.40
2022-10-23T08:15:52.309Z,12.57
2022-10-23T08:18:20.405Z,12.62
2022-10-23T08:20:49.154Z,12.59
2022-10-23T08:23:19.379Z,12.77
2022-10-23T08:25:47.747Z,13.12
2022-10-23T08:28:16.586Z,13.59
2022-10-23T08:30:44.477Z,13.88
2022-10-23T08:33:12.337Z,13.93
2022-10-23T08:35:40.675Z,13.72
2022-10-23T08:38:09.420Z,13.93
2022-10-23T08:40:39.132Z,14.13
2022-10-23T08:43:12.464Z,14.06
2022-10-23T08:45:44.316Z,13.47
2022-10-23T08:48:17.168Z,13.70
2022-10-23T08:50:49.332Z,13.74
2022-10-23T08:53:21.699Z,13.68
2022-10-23T08:55:58.159Z,13.83
2022-10-23T08:58:31.950Z,14.13
2022-10-23T09:01:00.002Z,14.24
2022-10-23T09:03:28.297Z,14.35
2022-10-23T09:06:08.980Z,14.45
2022-10-23T09:08:46.243Z,14.77
2022-10-23T09:11:19.432Z,14.83
2022-10-23T09:14:08.912Z,15.16
2022-10-23T09:16:45.101Z,15.45
2022-10-23T09:19:15.931Z,15.49
2022-10-23T09:21:46.050Z,15.38
2022-10-23T09:24:17.902Z,15.61
2022-10-23T09:26:49.828Z,15.53
2022-10-23T09:29:23.955Z,15.87
2022-10-23T09:31:53.143Z,16.36
2022-10-23T09:34:23.592Z,16.63
2022-10-23T09:36:53.596Z,16.64
2022-10-23T09:39:28.181Z,16.71
2022-10-23T09:41:57.624Z,17.41
2022-10-23T09:44:26.511Z,18.25
2022-10-23T09:46:56.267Z,18.56
2022-10-23T09:49:26.199Z,18.71
2022-10-23T09:52:03.128Z,18.47
2022-10-23T09:54:35.038Z,18.53
2022-10-23T09:57:16.985Z,18.55
2022-10-23T09:59:45.118Z,17.95
2022-10-23T10:02:22.716Z,17.80
2022-10-23T10:04:50.581Z,18.18
2022-10-23T10:07:21.622Z,18.42
2022-10-23T10:09:49.966Z,18.12
2022-10-23T10:12:31.705Z,18.39
2022-10-23T10:15:07.380Z,18.71
2022-10-23T10:17:40.944Z,19.02
2022-10-23T10:20:20.505Z,19.09
2022-10-23T10:22:52.463Z,18.95
2022-10-23T10:25:23.487Z,19.19
2022-10-23T10:28:04.544Z,19.00
2022-10-23T10:30:38.453Z,19.21
2022-10-23T10:33:10.979Z,19.25
2022-10-23T10:35:42.448Z,18.99
2022-10-23T10:38:31.128Z,19.04
2022-10-23T10:41:23.847Z,19.08
2022-10-23T10:44:01.690Z,19.00
2022-10-23T10:46:32.503Z,19.07
2022-10-23T10:49:01.793Z,19.11
2022-10-23T10:51:31.800Z,19.41
2022-10-23T10:54:08.174Z,19.45
2022-10-23T10:56:39.654Z,19.22
2022-10-23T10:59:15.307Z,19.19
2022-10-23T11:01:47.404Z,19.30
2022-10-23T11:04:21.383Z,19.57
2022-10-23T11:06:53.456Z,19.51
2022-10-23T11:09:23.040Z,18.94
2022-10-23T11:11:51.183Z,19.39
2022-10-23T11:14:22.660Z,19.44
2022-10-23T11:16:52.446Z,19.87
2022-10-23T11:19:23.575Z,20.18
2022-10-23T11:21:58.167Z,20.36
2022-10-23T11:24:49.041Z,20.71
2022-10-23T11:27:28.797Z,20.79
2022-10-23T11:30:18.981Z,20.28
2022-10-23T11:33:02.255Z,19.62
2022-10-23T11:35:44.287Z,19.69
2022-10-23T11:38:18.044Z,19.65
2022-10-23T11:40:47.246Z,19.77
2022-10-23T11:43:15.384Z,19.38
2022-10-23T11:45:44.621Z,19.40
2022-10-23T11:48:23.705Z,19.37
2022-10-23T11:50:54.925Z,19.30
2022-10-23T11:53:28.864Z,19.71
2022-10-23T11:56:00.150Z,19.69
2022-10-23T11:58:32.075Z,19.55
2022-10-23T12:01:04.897Z,19.38
2022-10-23T12:03:42.913Z,18.90
2022-10-23T12:06:23.055Z,19.09
2022-10-23T12:08:57.419Z,18.96
2022-10-23T12:11:40.135Z,18.72
2022-10-23T12:14:26.746Z,18.96
2022-10-23T12:16:56.212Z,18.70
2022-10-23T12:19:25.539Z,18.85
2022-10-23T12:21:54.695Z,18.97
2022-10-23T12:24:39.827Z,18.80
2022-10-23T12:27:32.560Z,18.86
2022-10-23T12:30:16.599Z,18.82
2022-10-23T12:32:58.813Z,18.78
2022-10-23T12:35:59.629Z,18.79
2022-10-23T12:38:32.448Z,19.12
2022-10-23T12:41:12.018Z,19.06
2022-10-23T12:43:41.316Z,19.39
2022-10-23T12:46:26.541Z,19.60
2022-10-23T12:48:57.997Z,19.54
2022-10-23T12:51:29.079Z,19.43
2022-10-23T12:53:57.138Z,19.41
2022-10-23T12:56:28.523Z,19.55
2022-10-23T12:59:00.958Z,19.31
2022-10-23T13:01:29.986Z,19.55
2022-10-23T13:04:12.592Z,19.19
2022-10-23T13:06:40.944Z,19.09
2022-10-23T13:09:19.184Z,19.18
2022-10-23T13:11:47.220Z,19.30
2022-10-23T13:14:15.854Z,19.24
2022-10-23T13:16:43.744Z,19.48
2022-10-23T13:19:25.940Z,19.55
2022-10-23T13:21:53.877Z,19.48
2022-10-23T13:24:23.162Z,19.72
2022-10-23T13:26:51.165Z,19.90
2022-10-23T13:29:21.478Z,19.91
2022-10-23T13:31:49.729Z,19.52
2022-10-23T13:34:27.135Z,19.34
2022-10-23T13:36:58.302Z,19.42
2022-10-23T13:39:28.178Z,19.41
2022-10-23T13:41:56.102Z,19.31
2022-10-23T13:44:25.189Z,19.30
2022-10-23T13:46:53.373Z,19.22
2022-10-23T13:49:21.602Z,19.03
2022-10-23T13:51:52.789Z,18.87
2022-10-23T13:54:22.990Z,18.90
2022-10-23T13:56:51.256Z,18.75
2022-10-23T13:59:19.757Z,18.87
2022-10-23T14:01:48.480Z,19.05
2022-10-23T14:04:18.485Z,18.75
2022-10-23T14:06:46.567Z,18.64
2022-10-23T14:09:17.316Z,18.66
2022-10-23T14:11:45.758Z,18.45
2022-10-23T14:14:13.727Z,18.28
2022-10-23T14:16:41.605Z,18.39
2022-10-23T14:19:10.423Z,18.18
2022-10-23T14:21:38.340Z,18.39
2022-10-23T14:24:06.728Z,18.57
2022-10-23T14:26:35.979Z,18.60
2022-10-23T14:29:07.648Z,18.65
2022-10-23T14:31:38.103Z,18.55
2022-10-23T14:34:06.027Z,18.36
2022-10-23T14:36:43.283Z,18.13
2022-10-23T14:39:18.766Z,18.16
2022-10-23T14:41:48.200Z,18.08
2022-10-23T14:44:16.180Z,17.77
2022-10-23T14:46:44.101Z,17.65
2022-10-23T14:49:12.176Z,17.41
2022-10-23T14:51:40.068Z,17.41
2022-10-23T14:54:09.217Z,17.11
2022-10-23T14:56:39.454Z,16.93
2022-10-23T14:59:10.709Z,16.74
2022-10-23T15:01:43.897Z,16.67
2022-10-23T15:04:14.439Z,16.59
2022-10-23T15:06:42.681Z,16.48
2022-10-23T15:09:10.654Z,16.65
2022-10-23T15:11:38.573Z,16.58
2022-10-23T15:14:08.075Z,16.62
2022-10-23T15:16:41.309Z,16.44
2022-10-23T15:19:13.495Z,16.31
2022-10-23T15:21:45.277Z,16.02
2022-10-23T15:24:13.157Z,15.68
2022-10-23T15:26:43.079Z,15.56
2022-10-23T15:29:12.900Z,15.45
2022-10-23T15:31:49.645Z,15.32
2022-10-23T15:34:19.310Z,15.16
2022-10-23T15:36:47.994Z,15.01
2022-10-23T15:39:17.331Z,14.84
2022-10-23T15:41:45.457Z,14.59
2022-10-23T15:44:18.099Z,14.45
2022-10-23T15:46:45.997Z,14.31
2022-10-23T15:49:14.234Z,14.11
2022-10-23T15:51:42.685Z,13.84
2022-10-23T15:54:13.132Z,13.50
2022-10-23T15:56:41.022Z,13.44
2022-10-23T15:59:08.988Z,13.33
2022-10-23T16:01:38.417Z,13.24
2022-10-23T16:04:06.529Z,13.05
2022-10-23T16:06:34.449Z,12.93
2022-10-23T16:09:02.578Z,12.94
2022-10-23T16:11:32.213Z,12.69
2022-10-23T16:14:01.740Z,12.52
2022-10-23T16:16:29.802Z,12.38
2022-10-23T16:19:01.478Z,12.20
2022-10-23T16:21:30.708Z,12.18
2022-10-23T16:24:00.531Z,12.18
2022-10-23T16:26:29.672Z,12.18
2022-10-23T16:28:59.418Z,12.00
2022-10-23T16:31:27.692Z,11.94
2022-10-23T16:36:25.073Z,11.51
2022-10-23T16:38:52.942Z,11.42
2022-10-23T16:41:20.825Z,11.28
2022-10-23T16:43:48.691Z,11.25
2022-10-23T16:46:17.972Z,11.29
2022-10-23T16:48:46.023Z,11.04
2022-10-23T16:51:15.870Z,11.02
2022-10-23T16:53:45.293Z,10.99
2022-10-23T16:56:15.177Z,11.00
2022-10-23T16:58:43.434Z,10.91
2022-10-23T17:01:13.486Z,10.83
2022-10-23T17:03:43.489Z,10.79
2022-10-23T17:06:12.984Z,10.74
2022-10-23T17:08:41.088Z,10.75
2022-10-23T17:11:12.106Z,10.80
2022-10-23T17:13:41.708Z,10.78
2022-10-23T17:16:11.950Z,10.74
2022-10-23T17:18:43.721Z,10.74
2022-10-23T17:21:12.459Z,10.80
2022-10-23T17:23:40.357Z,10.84
2022-10-23T17:26:10.709Z,10.90
2022-10-23T17:28:41.646Z,10.95
2022-10-23T17:31:14.349Z,10.99
2022-10-23T17:33:43.120Z,10.97
2022-10-23T17:36:11.974Z,11.00
2022-10-23T17:38:41.126Z,10.97
2022-10-23T17:41:12.236Z,11.08
2022-10-23T17:43:40.641Z,11.14
2022-10-23T17:46:10.132Z,11.17
2022-10-23T17:48:39.312Z,11.03
2022-10-23T17:51:09.673Z,11.06
2022-10-23T17:53:38.957Z,11.05
2022-10-23T17:56:08.971Z,11.07
2022-10-23T17:58:38.237Z,11.12
2022-10-23T18:01:06.761Z,11.10
2022-10-23T18:03:37.252Z,10.99
2022-10-23T18:06:08.657Z,10.95
2022-10-23T18:08:36.888Z,10.81
2022-10-23T18:11:05.153Z,10.83
2022-10-23T18:13:33.831Z,10.83
2022-10-23T18:16:03.639Z,10.77
2022-10-23T18:18:31.610Z,10.65
2022-10-23T18:20:59.892Z,10.59
2022-10-23T18:23:28.242Z,10.57
2022-10-23T18:25:56.190Z,10.40
2022-10-23T18:28:24.124Z,10.25
2022-10-23T18:30:54.671Z,10.27
2022-10-23T18:33:26.743Z,10.18
2022-10-23T18:35:54.658Z,10.21
2022-10-23T18:38:22.580Z,10.16
2022-10-23T18:40:55.589Z,10.20
2022-10-23T18:43:42.706Z,10.12
2022-10-23T18:46:11.980Z,10.08
2022-10-23T18:48:41.461Z,9.88
2022-10-23T18:51:15.826Z,10.01
2022-10-23T18:53:46.658Z,9.98
2022-10-23T18:56:15.472Z,9.94
2022-10-23T18:58:43.457Z,9.98
2022-10-23T19:01:11.815Z,9.72
2022-10-23T19:03:41.143Z,9.81
2022-10-23T19:06:09.539Z,9.74
2022-10-23T19:08:38.122Z,9.69
2022-10-23T19:11:07.368Z,9.65
2022-10-23T19:13:39.100Z,9.58
2022-10-23T19:16:10.393Z,9.66
2022-10-23T19:18:41.350Z,9.70
2022-10-23T19:21:09.293Z,9.64
2022-10-23T19:23:37.641Z,9.57
2022-10-23T19:26:08.803Z,9.66
2022-10-23T19:28:37.854Z,9.51
2022-10-23T19:31:07.630Z,9.48
2022-10-23T19:33:36.183Z,9.42
2022-10-23T19:36:08.806Z,9.35
2022-10-23T19:38:40.296Z,9.34
2022-10-23T19:41:08.484Z,9.36
2022-10-23T19:43:37.728Z,9.35
2022-10-23T19:46:09.483Z,9.30
2022-10-23T19:48:42.510Z,9.11
2022-10-23T19:51:13.952Z,9.10
2022-10-23T19:53:43.034Z,9.27
2022-10-23T19:56:12.476Z,9.13
2022-10-23T19:58:41.223Z,9.06
2022-10-23T20:01:11.358Z,8.96
2022-10-23T20:03:40.187Z,8.90
2022-10-23T20:06:11.718Z,8.90
2022-10-23T20:08:39.681Z,9.00
2022-10-23T20:11:08.221Z,9.19
2022-10-23T20:13:36.457Z,9.10
2022-10-23T20:16:04.590Z,9.13
2022-10-23T20:18:32.549Z,9.17
2022-10-23T20:21:02.334Z,9.16
2022-10-23T20:23:31.616Z,9.11
2022-10-23T20:26:05.597Z,9.00
2022-10-23T20:28:33.797Z,9.05
2022-10-23T20:31:03.275Z,8.96
2022-10-23T20:33:31.175Z,8.92
2022-10-23T20:35:59.153Z,8.81
2022-10-23T20:38:27.057Z,8.79
2022-10-23T20:41:00.313Z,8.73
2022-10-23T20:43:28.280Z,8.66
2022-10-23T20:45:56.174Z,8.68
2022-10-23T20:48:24.045Z,8.69
2022-10-23T20:50:52.044Z,8.74
2022-10-23T20:53:19.943Z,8.66
2022-10-23T20:55:47.821Z,8.61
2022-10-23T20:58:17.077Z,8.61
2022-10-23T21:00:45.053Z,8.69
2022-10-23T21:03:13.014Z,8.73
2022-10-23T21:05:40.892Z,8.66
2022-10-23T21:08:08.801Z,8.67
2022-10-23T21:10:36.659Z,8.71
2022-10-23T21:13:04.552Z,8.71
2022-10-23T21:15:34.839Z,8.77
2022-10-23T21:18:13.153Z,8.85
2022-10-23T21:20:50.666Z,8.87
2022-10-23T21:23:18.630Z,8.78
2022-10-23T21:28:15.357Z,8.88
2022-10-23T21:30:44.635Z,8.84
2022-10-23T21:33:12.557Z,8.79
2022-10-23T21:35:47.485Z,8.82
2022-10-23T21:38:26.253Z,8.95
2022-10-23T21:40:54.174Z,9.05
2022-10-23T21:43:22.195Z,9.00
2022-10-23T21:45:54.302Z,9.07
2022-10-23T21:48:23.397Z,9.20
2022-10-23T21:50:51.291Z,9.39
2022-10-23T21:53:19.202Z,9.25
2022-10-23T21:55:47.079Z,9.14
2022-10-23T21:58:15.013Z,9.13
2022-10-23T22:00:42.903Z,9.15
2022-10-23T22:03:12.194Z,9.14
2022-10-23T22:05:40.101Z,9.15
2022-10-23T22:08:08.004Z,9.22
2022-10-23T22:10:36.121Z,9.14
2022-10-23T22:13:03.986Z,9.28
2022-10-23T22:15:31.937Z,9.00
2022-10-23T22:18:00.473Z,9.08
2022-10-23T22:20:29.793Z,9.28
2022-10-23T22:22:57.682Z,9.28
2022-10-23T22:25:25.592Z,9.42
2022-10-23T22:27:53.530Z,9.30
2022-10-23T22:30:21.429Z,9.15
2022-10-23T22:32:49.309Z,9.00
2022-10-23T22:35:17.786Z,8.94
2022-10-23T22:37:47.012Z,9.11
2022-10-23T22:40:15.049Z,9.08
2022-10-23T22:42:43.191Z,9.04
2022-10-23T22:45:11.444Z,9.07
2022-10-23T22:47:39.369Z,9.07
2022-10-23T22:50:08.398Z,8.91
2022-10-23T22:52:36.293Z,9.07
2022-10-23T22:55:06.552Z,8.98
2022-10-23T22:57:34.494Z,9.09
2022-10-23T23:00:02.432Z,9.31
2022-10-23T23:02:30.355Z,9.33
2022-10-23T23:04:58.261Z,9.30
2022-10-23T23:07:26.177Z,9.26
2022-10-23T23:09:54.038Z,9.01
2022-10-23T23:12:23.313Z,8.88
2022-10-23T23:14:51.181Z,8.95
2022-10-23T23:17:19.129Z,8.89
2022-10-23T23:19:47.005Z,8.95
2022-10-23T23:22:14.929Z,8.77
2022-10-23T23:24:42.842Z,8.81
2022-10-23T23:27:10.742Z,8.67
2022-10-23T23:29:40.020Z,8.66
2022-10-23T23:32:07.921Z,8.68
2022-10-23T23:34:35.845Z,8.68
2022-10-23T23:37:03.786Z,8.79
2022-10-23T23:39:31.696Z,8.58
2022-10-23T23:41:59.596Z,8.60
2022-10-23T23:44:27.544Z,8.65
2022-10-23T23:46:56.936Z,8.55
2022-10-23T23:49:24.865Z,8.43
2022-10-23T23:51:52.805Z,8.39
2022-10-23T23:54:20.689Z,8.40
2022-10-23T23:56:48.564Z,8.32
2022-10-23T23:59:16.451Z,8.49
